createdAt,value
2018-10-06T00:00:56.341Z,92.56
2018-10-06T00:02:02.687Z,93.16
2018-10-06T00:03:09.087Z,92.87
2018-10-06T00:04:15.418Z,92.86
2018-10-06T00:05:21.002Z,92.99
2018-10-06T00:06:27.423Z,92.96
2018-10-06T00:07:33.821Z,93.23
2018-10-06T00:08:40.167Z,93.38
2018-10-06T00:09:46.569Z,93.25
2018-10-06T00:10:52.920Z,93.14
2018-10-06T00:11:59.255Z,93.09
2018-10-06T00:13:05.655Z,93.18
2018-10-06T00:14:12.029Z,93.16
2018-10-06T00:15:18.386Z,93.05
2018-10-06T00:16:24.527Z,92.67
2018-10-06T00:17:30.858Z,92.46
2018-10-06T00:18:37.117Z,92.54
2018-10-06T00:19:43.430Z,92.50
2018-10-06T00:20:49.871Z,92.01
2018-10-06T00:21:56.283Z,92.12
2018-10-06T00:23:02.575Z,92.14
2018-10-06T00:24:08.871Z,91.88
2018-10-06T00:25:15.771Z,92.26
2018-10-06T00:26:21.799Z,92.35
2018-10-06T00:27:28.011Z,92.41
2018-10-06T00:28:34.321Z,92.25
2018-10-06T00:29:40.643Z,92.66
2018-10-06T00:30:46.985Z,92.31
2018-10-06T00:31:53.397Z,92.83
2018-10-06T00:32:59.707Z,92.76
2018-10-06T00:34:06.092Z,93.06
2018-10-06T00:35:12.529Z,92.42
2018-10-06T00:36:18.604Z,92.60
2018-10-06T00:37:25.062Z,93.41
2018-10-06T00:38:31.444Z,93.29
2018-10-06T00:39:37.783Z,93.51
2018-10-06T00:40:44.071Z,92.98
2018-10-06T00:41:50.402Z,93.02
2018-10-06T00:42:56.705Z,93.00
2018-10-06T00:44:03.322Z,93.52
2018-10-06T00:45:09.686Z,93.66
2018-10-06T00:46:15.593Z,93.65
2018-10-06T00:47:21.857Z,93.80
2018-10-06T00:48:28.441Z,93.69
2018-10-06T00:49:34.756Z,93.64
2018-10-06T00:50:41.174Z,93.49
2018-10-06T00:51:47.149Z,93.57
2018-10-06T00:52:53.557Z,93.26
2018-10-06T00:53:59.802Z,93.27
2018-10-06T00:55:05.758Z,93.37
2018-10-06T00:56:12.152Z,94.32
2018-10-06T00:57:18.474Z,95.20
2018-10-06T00:58:24.771Z,94.52
2018-10-06T00:59:31.118Z,95.34
2018-10-06T01:00:37.383Z,94.83
2018-10-06T01:01:43.447Z,95.00
2018-10-06T01:02:49.722Z,94.56
2018-10-06T01:03:55.997Z,94.39
2018-10-06T01:05:02.345Z,95.12
2018-10-06T01:06:08.410Z,95.03
2018-10-06T01:07:14.762Z,94.83
2018-10-06T01:08:21.148Z,94.26
2018-10-06T01:09:27.448Z,94.44
2018-10-06T01:10:33.864Z,94.15
2018-10-06T01:11:40.208Z,94.33
2018-10-06T01:12:46.557Z,94.03
2018-10-06T01:13:53.470Z,94.44
2018-10-06T01:14:59.828Z,94.31
2018-10-06T01:16:06.255Z,94.42
2018-10-06T01:17:13.189Z,94.28
2018-10-06T01:18:19.591Z,94.54
2018-10-06T01:19:25.533Z,94.41
2018-10-06T01:20:31.913Z,94.12
2018-10-06T01:21:38.001Z,94.04
2018-10-06T01:22:44.369Z,94.18
2018-10-06T01:23:54.661Z,93.88
2018-10-06T01:25:01.000Z,93.79
2018-10-06T01:26:07.137Z,93.71
2018-10-06T01:27:13.396Z,94.02
2018-10-06T01:28:19.686Z,94.07
2018-10-06T01:29:25.736Z,94.24
2018-10-06T01:30:32.099Z,94.02
2018-10-06T01:31:38.482Z,94.37
2018-10-06T01:32:44.834Z,94.32
2018-10-06T01:33:50.917Z,94.23
2018-10-06T01:34:57.277Z,94.37
2018-10-06T01:36:03.555Z,94.83
2018-10-06T01:37:10.588Z,94.90
2018-10-06T01:38:16.974Z,94.91
2018-10-06T01:39:23.316Z,94.90
2018-10-06T01:40:29.386Z,95.11
2018-10-06T01:41:35.654Z,95.26
2018-10-06T01:42:42.262Z,95.10
2018-10-06T01:43:48.654Z,95.29
2018-10-06T01:44:54.960Z,95.02
2018-10-06T01:46:01.284Z,94.98
2018-10-06T01:47:07.605Z,95.11
2018-10-06T01:48:13.919Z,95.25
2018-10-06T01:49:20.228Z,95.19
2018-10-06T01:50:26.513Z,95.68
2018-10-06T01:51:32.847Z,95.53
2018-10-06T01:52:39.161Z,95.16
2018-10-06T01:53:45.452Z,95.13
2018-10-06T01:54:51.904Z,95.35
2018-10-06T01:55:58.200Z,95.43
2018-10-06T01:57:04.584Z,95.53
2018-10-06T01:58:11.891Z,95.42
2018-10-06T01:59:18.158Z,95.80
2018-10-06T02:00:24.459Z,95.97
2018-10-06T02:01:30.771Z,96.21
2018-10-06T02:02:37.224Z,96.28
2018-10-06T02:03:43.518Z,96.06
2018-10-06T02:04:49.848Z,95.54
2018-10-06T02:05:56.125Z,95.48
2018-10-06T02:07:02.479Z,95.19
2018-10-06T02:08:08.772Z,95.03
2018-10-06T02:09:15.094Z,95.83
2018-10-06T02:10:21.139Z,95.62
2018-10-06T02:11:27.343Z,95.65
2018-10-06T02:12:33.731Z,95.39
2018-10-06T02:13:40.023Z,95.51
2018-10-06T02:14:46.354Z,95.91
2018-10-06T02:15:52.956Z,96.02
2018-10-06T02:16:59.239Z,96.00
2018-10-06T02:18:05.578Z,95.97
2018-10-06T02:19:11.857Z,95.69
2018-10-06T02:20:18.164Z,95.18
2018-10-06T02:21:24.576Z,95.61
2018-10-06T02:22:30.921Z,95.14
2018-10-06T02:23:37.211Z,95.07
2018-10-06T02:24:43.317Z,94.90
2018-10-06T02:25:49.392Z,95.10
2018-10-06T02:26:55.770Z,95.47
2018-10-06T02:28:02.065Z,95.39
2018-10-06T02:29:08.343Z,95.31
2018-10-06T02:30:14.719Z,95.04
2018-10-06T02:31:21.289Z,95.11
2018-10-06T02:32:27.479Z,95.18
2018-10-06T02:33:33.850Z,95.64
2018-10-06T02:34:40.115Z,95.94
2018-10-06T02:35:46.466Z,95.84
2018-10-06T02:36:52.813Z,95.98
2018-10-06T02:37:59.400Z,95.76
2018-10-06T02:39:04.982Z,96.19
2018-10-06T02:40:11.179Z,95.22
2018-10-06T02:41:17.383Z,95.01
2018-10-06T02:42:23.610Z,94.63
2018-10-06T02:43:29.887Z,93.76
2018-10-06T02:44:36.095Z,93.37
2018-10-06T02:45:42.325Z,93.51
2018-10-06T02:46:48.544Z,93.35
2018-10-06T02:47:54.813Z,93.21
2018-10-06T02:49:01.065Z,92.44
2018-10-06T02:50:06.592Z,92.41
2018-10-06T02:51:12.789Z,91.69
2018-10-06T02:52:18.677Z,91.39
2018-10-06T02:53:24.945Z,91.59
2018-10-06T02:54:31.241Z,91.15
2018-10-06T02:55:37.439Z,91.49
2018-10-06T02:56:43.669Z,91.90
2018-10-06T02:57:49.935Z,92.35
2018-10-06T02:58:55.875Z,91.94
2018-10-06T03:00:02.309Z,91.69
2018-10-06T03:01:09.450Z,92.30
2018-10-06T03:02:15.658Z,92.57
2018-10-06T03:03:21.892Z,92.00
2018-10-06T03:04:28.116Z,91.69
2018-10-06T03:05:34.367Z,91.42
2018-10-06T03:06:40.593Z,91.21
2018-10-06T03:07:46.864Z,90.39
2018-10-06T03:08:53.174Z,90.08
2018-10-06T03:09:59.423Z,90.23
2018-10-06T03:11:05.652Z,89.88
2018-10-06T03:12:11.872Z,90.06
2018-10-06T03:13:18.107Z,90.16
2018-10-06T03:14:24.348Z,90.46
2018-10-06T03:15:30.543Z,91.31
2018-10-06T03:16:36.772Z,91.13
2018-10-06T03:17:43.009Z,90.61
2018-10-06T03:18:49.271Z,91.01
2018-10-06T03:19:55.240Z,90.97
2018-10-06T03:21:01.344Z,91.42
2018-10-06T03:22:07.653Z,92.11
2018-10-06T03:23:14.089Z,91.80
2018-10-06T03:24:20.382Z,91.46
2018-10-06T03:25:26.787Z,91.58
2018-10-06T03:26:33.137Z,91.87
2018-10-06T03:27:39.549Z,91.14
2018-10-06T03:28:46.322Z,91.14
2018-10-06T03:29:52.802Z,91.51
2018-10-06T03:30:59.060Z,91.81
2018-10-06T03:32:05.362Z,91.68
2018-10-06T03:33:11.730Z,91.77
2018-10-06T03:34:18.125Z,92.23
2018-10-06T03:35:24.491Z,91.95
2018-10-06T03:36:30.729Z,92.34
2018-10-06T03:37:37.098Z,92.18
2018-10-06T03:38:43.386Z,92.22
2018-10-06T03:39:49.670Z,92.29
2018-10-06T03:40:56.219Z,92.38
2018-10-06T03:42:02.290Z,92.36
2018-10-06T03:43:08.594Z,92.77
2018-10-06T03:44:14.946Z,92.93
2018-10-06T03:45:21.241Z,93.03
2018-10-06T03:46:27.528Z,92.76
2018-10-06T03:47:33.829Z,93.13
2018-10-06T03:48:40.211Z,93.24
2018-10-06T03:49:46.474Z,93.14
2018-10-06T03:50:52.783Z,93.30
2018-10-06T03:51:59.139Z,93.39
2018-10-06T03:53:05.415Z,94.27
2018-10-06T03:54:11.827Z,94.24
2018-10-06T03:55:18.342Z,94.36
2018-10-06T03:56:24.748Z,94.58
2018-10-06T03:57:31.069Z,94.57
2018-10-06T03:58:37.159Z,94.57
2018-10-06T03:59:43.471Z,94.93
2018-10-06T04:00:49.830Z,95.20
2018-10-06T04:01:56.096Z,95.21
2018-10-06T04:03:02.411Z,95.64
2018-10-06T04:04:08.863Z,95.96
2018-10-06T04:05:15.281Z,96.25
2018-10-06T04:06:21.587Z,95.99
2018-10-06T04:07:27.876Z,95.98
2018-10-06T04:08:34.194Z,96.24
2018-10-06T04:09:46.518Z,96.13
2018-10-06T04:10:52.870Z,95.89
2018-10-06T04:11:59.153Z,95.66
2018-10-06T04:13:05.484Z,96.00
2018-10-06T04:14:11.458Z,95.80
2018-10-06T04:15:17.765Z,95.56
2018-10-06T04:16:24.206Z,95.70
2018-10-06T04:17:30.533Z,95.98
2018-10-06T04:18:36.853Z,96.30
2018-10-06T04:19:43.223Z,96.20
2018-10-06T04:20:49.543Z,96.47
2018-10-06T04:21:55.858Z,96.31
2018-10-06T04:23:02.182Z,96.36
2018-10-06T04:24:08.504Z,96.76
2018-10-06T04:25:14.787Z,96.54
2018-10-06T04:26:20.797Z,97.09
2018-10-06T04:27:27.161Z,96.84
2018-10-06T04:28:33.508Z,97.07
2018-10-06T04:29:40.060Z,97.27
2018-10-06T04:30:46.338Z,97.50
2018-10-06T04:31:52.727Z,97.72
2018-10-06T04:32:59.026Z,97.54
2018-10-06T04:34:05.320Z,97.60
2018-10-06T04:35:11.310Z,97.49
2018-10-06T04:36:17.748Z,97.28
2018-10-06T04:37:24.018Z,97.00
2018-10-06T04:38:30.349Z,96.78
2018-10-06T04:39:36.685Z,96.62
2018-10-06T04:40:42.955Z,96.94
2018-10-06T04:41:49.271Z,96.71
2018-10-06T04:42:55.588Z,96.56
2018-10-06T04:44:01.914Z,96.73
2018-10-06T04:45:08.216Z,96.62
2018-10-06T04:46:14.544Z,96.16
2018-10-06T04:47:20.830Z,95.46
2018-10-06T04:48:27.154Z,95.50
2018-10-06T04:49:33.578Z,96.19
2018-10-06T04:50:39.853Z,96.26
2018-10-06T04:51:46.166Z,96.13
2018-10-06T04:52:52.492Z,96.64
2018-10-06T04:53:58.979Z,96.75
2018-10-06T04:55:04.862Z,96.88
2018-10-06T04:56:11.215Z,97.24
2018-10-06T04:57:17.541Z,96.93
2018-10-06T04:58:23.914Z,96.95
2018-10-06T04:59:30.211Z,96.86
2018-10-06T05:00:36.503Z,97.58
2018-10-06T05:01:42.813Z,97.54
2018-10-06T05:02:49.104Z,97.73
2018-10-06T05:03:55.523Z,98.17
2018-10-06T05:05:01.830Z,98.52
2018-10-06T05:06:08.186Z,98.96
2018-10-06T05:07:14.438Z,98.67
2018-10-06T05:08:20.782Z,98.50
2018-10-06T05:09:26.859Z,98.61
2018-10-06T05:10:33.283Z,98.44
2018-10-06T05:11:39.620Z,97.63
2018-10-06T05:12:45.883Z,97.75
2018-10-06T05:13:52.303Z,97.55
2018-10-06T05:14:58.663Z,97.73
2018-10-06T05:16:04.641Z,97.17
2018-10-06T05:17:11.007Z,97.41
2018-10-06T05:18:17.368Z,97.41
2018-10-06T05:19:23.830Z,97.15
2018-10-06T05:20:30.187Z,96.57
2018-10-06T05:21:36.503Z,95.89
2018-10-06T05:22:42.815Z,96.32
2018-10-06T05:23:48.951Z,96.59
2018-10-06T05:24:55.295Z,96.96
2018-10-06T05:26:01.532Z,97.31
2018-10-06T05:27:07.858Z,97.86
2018-10-06T05:28:14.171Z,98.20
2018-10-06T05:29:20.432Z,98.30
2018-10-06T05:30:26.642Z,99.13
2018-10-06T05:31:32.871Z,99.30
2018-10-06T05:32:39.115Z,99.14
2018-10-06T05:33:45.489Z,99.45
2018-10-06T05:34:51.887Z,99.75
2018-10-06T05:35:59.767Z,99.78
2018-10-06T05:37:06.542Z,99.80
2018-10-06T05:38:12.924Z,99.71
2018-10-06T05:39:19.275Z,99.79
2018-10-06T05:40:27.692Z,99.97
2018-10-06T05:41:34.727Z,100.00
2018-10-06T05:42:41.162Z,100.00
2018-10-06T05:43:47.457Z,100.00
2018-10-06T05:44:53.854Z,100.00
2018-10-06T05:46:01.419Z,100.00
2018-10-06T05:47:10.207Z,100.00
2018-10-06T05:48:18.160Z,100.00
2018-10-06T05:49:25.947Z,100.00
2018-10-06T05:50:33.751Z,100.00
2018-10-06T05:51:41.662Z,100.00
2018-10-06T05:52:50.294Z,100.00
2018-10-06T05:53:58.209Z,100.00
2018-10-06T05:55:05.700Z,100.00
2018-10-06T05:56:14.138Z,100.00
2018-10-06T05:57:22.852Z,100.00
2018-10-06T05:58:30.455Z,100.00
2018-10-06T05:59:38.064Z,100.00
2018-10-06T06:00:45.972Z,100.00
2018-10-06T06:01:53.824Z,100.00
2018-10-06T06:03:01.929Z,100.00
2018-10-06T06:04:15.127Z,100.00
2018-10-06T06:05:24.882Z,100.00
2018-10-06T06:06:31.757Z,100.00
2018-10-06T06:07:38.449Z,100.00
2018-10-06T06:08:45.974Z,100.00
2018-10-06T06:09:55.024Z,100.00
2018-10-06T06:11:02.519Z,100.00
2018-10-06T06:12:10.256Z,100.00
2018-10-06T06:13:17.854Z,100.00
2018-10-06T06:14:24.606Z,100.00
2018-10-06T06:15:30.998Z,100.00
2018-10-06T06:16:37.577Z,100.00
2018-10-06T06:17:45.767Z,100.00
2018-10-06T06:18:54.578Z,100.00
2018-10-06T06:20:05.187Z,100.00
2018-10-06T06:21:12.716Z,100.00
2018-10-06T06:22:19.636Z,100.00
2018-10-06T06:23:26.402Z,100.00
2018-10-06T06:24:33.192Z,100.00
2018-10-06T06:25:40.362Z,100.00
2018-10-06T06:26:46.793Z,100.00
2018-10-06T06:27:53.583Z,100.00
2018-10-06T06:29:00.398Z,100.00
2018-10-06T06:30:07.259Z,100.00
2018-10-06T06:31:14.160Z,100.00
2018-10-06T06:32:21.571Z,100.00
2018-10-06T06:33:29.621Z,100.00
2018-10-06T06:34:36.153Z,100.00
2018-10-06T06:35:43.355Z,100.00
2018-10-06T06:36:50.149Z,100.00
2018-10-06T06:37:56.834Z,100.00
2018-10-06T06:39:03.035Z,100.00
2018-10-06T06:40:09.800Z,100.00
2018-10-06T06:41:17.624Z,100.00
2018-10-06T06:42:24.180Z,100.00
2018-10-06T06:43:31.534Z,100.00
2018-10-06T06:44:40.400Z,100.00
2018-10-06T06:45:47.541Z,100.00
2018-10-06T06:46:54.058Z,100.00
2018-10-06T06:48:02.832Z,100.00
2018-10-06T06:49:09.552Z,100.00
2018-10-06T06:50:16.190Z,100.00
2018-10-06T06:51:25.060Z,100.00
2018-10-06T06:52:31.804Z,100.00
2018-10-06T06:53:38.913Z,100.00
2018-10-06T06:54:47.226Z,100.00
2018-10-06T06:55:53.962Z,100.00
2018-10-06T06:57:01.088Z,100.00
2018-10-06T06:58:07.430Z,100.00
2018-10-06T06:59:14.090Z,100.00
2018-10-06T07:00:21.162Z,100.00
2018-10-06T07:01:28.355Z,100.00
2018-10-06T07:02:35.508Z,100.00
2018-10-06T07:03:42.658Z,100.00
2018-10-06T07:04:49.154Z,100.00
2018-10-06T07:05:55.678Z,100.00
2018-10-06T07:07:02.499Z,100.00
2018-10-06T07:08:08.801Z,100.00
2018-10-06T07:09:16.035Z,99.75
2018-10-06T07:10:23.055Z,99.77
2018-10-06T07:11:30.524Z,99.83
2018-10-06T07:12:37.705Z,99.46
2018-10-06T07:13:45.154Z,99.25
2018-10-06T07:14:52.344Z,98.99
2018-10-06T07:16:00.529Z,98.13
2018-10-06T07:17:07.175Z,96.92
2018-10-06T07:18:15.608Z,96.67
2018-10-06T07:19:22.807Z,95.89
2018-10-06T07:20:30.206Z,95.46
2018-10-06T07:21:37.436Z,94.08
2018-10-06T07:22:45.653Z,93.10
2018-10-06T07:23:52.505Z,91.89
2018-10-06T07:24:59.112Z,91.42
2018-10-06T07:26:06.478Z,91.68
2018-10-06T07:27:13.535Z,91.10
2018-10-06T07:28:22.097Z,90.43
2018-10-06T07:29:29.509Z,89.64
2018-10-06T07:30:36.373Z,89.17
2018-10-06T07:31:43.965Z,88.76
2018-10-06T07:32:51.374Z,88.33
2018-10-06T07:33:57.920Z,88.46
2018-10-06T07:35:06.280Z,87.58
2018-10-06T07:36:13.739Z,86.90
2018-10-06T07:37:21.528Z,86.16
2018-10-06T07:38:27.801Z,86.49
2018-10-06T07:39:35.490Z,85.77
2018-10-06T07:40:42.793Z,86.41
2018-10-06T07:41:50.290Z,85.26
2018-10-06T07:42:57.809Z,83.94
2018-10-06T07:44:04.867Z,83.41
2018-10-06T07:45:11.746Z,83.35
2018-10-06T07:46:19.760Z,81.86
2018-10-06T07:47:27.268Z,82.30
2018-10-06T07:48:34.706Z,81.76
2018-10-06T07:49:42.455Z,81.73
2018-10-06T07:50:49.690Z,81.15
2018-10-06T07:51:57.828Z,80.69
2018-10-06T07:53:04.838Z,80.63
2018-10-06T07:54:11.696Z,79.98
2018-10-06T07:55:20.166Z,79.58
2018-10-06T07:56:27.203Z,80.02
2018-10-06T07:57:34.618Z,80.04
2018-10-06T07:58:42.204Z,79.78
2018-10-06T07:59:49.179Z,79.37
2018-10-06T08:00:57.958Z,80.03
2018-10-06T08:02:04.975Z,78.92
2018-10-06T08:03:11.263Z,78.63
2018-10-06T08:04:17.666Z,80.27
2018-10-06T08:05:23.882Z,79.09
2018-10-06T08:06:30.385Z,77.88
2018-10-06T08:07:37.074Z,78.06
2018-10-06T08:08:43.429Z,77.65
2018-10-06T08:09:50.600Z,76.81
2018-10-06T08:10:56.981Z,76.59
2018-10-06T08:12:03.012Z,76.63
2018-10-06T08:13:09.402Z,76.65
2018-10-06T08:14:15.585Z,77.22
2018-10-06T08:15:22.074Z,77.01
2018-10-06T08:16:28.431Z,75.96
2018-10-06T08:17:34.763Z,75.47
2018-10-06T08:18:41.044Z,75.44
2018-10-06T08:19:47.366Z,75.58
2018-10-06T08:20:53.708Z,75.92
2018-10-06T08:22:00.006Z,75.02
2018-10-06T08:23:05.977Z,75.19
2018-10-06T08:24:12.321Z,75.50
2018-10-06T08:25:18.664Z,74.05
2018-10-06T08:26:25.022Z,73.55
2018-10-06T08:27:31.435Z,73.95
2018-10-06T08:28:37.871Z,73.33
2018-10-06T08:29:44.170Z,73.23
2018-10-06T08:30:50.503Z,73.60
2018-10-06T08:31:56.856Z,73.06
2018-10-06T08:33:03.394Z,73.77
2018-10-06T08:34:09.645Z,73.22
2018-10-06T08:35:16.681Z,72.95
2018-10-06T08:36:23.057Z,74.08
2018-10-06T08:37:29.560Z,74.36
2018-10-06T08:38:35.874Z,73.63
2018-10-06T08:39:42.252Z,73.43
2018-10-06T08:40:48.530Z,73.64
2018-10-06T08:41:55.523Z,73.96
2018-10-06T08:43:01.911Z,72.49
2018-10-06T08:44:08.253Z,73.11
2018-10-06T08:45:14.681Z,72.33
2018-10-06T08:46:21.021Z,73.40
2018-10-06T08:47:27.391Z,74.02
2018-10-06T08:48:33.800Z,72.84
2018-10-06T08:49:40.841Z,71.96
2018-10-06T08:50:47.191Z,71.06
2018-10-06T08:51:53.557Z,71.54
2018-10-06T08:52:59.873Z,72.38
2018-10-06T08:54:06.236Z,71.02
2018-10-06T08:55:12.530Z,71.13
2018-10-06T08:56:18.760Z,71.87
2018-10-06T08:57:25.252Z,69.94
2018-10-06T08:58:31.579Z,70.33
2018-10-06T08:59:37.982Z,69.64
2018-10-06T09:00:44.299Z,69.72
2018-10-06T09:01:50.577Z,69.86
2018-10-06T09:02:56.996Z,70.10
2018-10-06T09:04:03.296Z,70.37
2018-10-06T09:05:09.557Z,68.98
2018-10-06T09:06:15.823Z,69.31
2018-10-06T09:07:22.171Z,67.72
2018-10-06T09:08:28.446Z,67.11
2018-10-06T09:09:34.577Z,66.52
2018-10-06T09:10:40.934Z,67.54
2018-10-06T09:11:47.091Z,67.21
2018-10-06T09:12:53.381Z,67.63
2018-10-06T09:13:59.723Z,68.42
2018-10-06T09:15:05.354Z,66.88
2018-10-06T09:16:11.711Z,65.81
2018-10-06T09:17:18.132Z,66.30
2018-10-06T09:18:24.476Z,65.26
2018-10-06T09:19:30.750Z,66.32
2018-10-06T09:20:37.053Z,66.05
2018-10-06T09:21:43.164Z,66.23
2018-10-06T09:22:49.478Z,66.73
2018-10-06T09:23:55.939Z,65.91
2018-10-06T09:25:02.350Z,66.04
2018-10-06T09:26:08.763Z,65.15
2018-10-06T09:27:14.997Z,64.56
2018-10-06T09:28:21.353Z,63.63
2018-10-06T09:29:27.899Z,63.49
2018-10-06T09:30:34.313Z,64.29
2018-10-06T09:31:40.628Z,63.57
2018-10-06T09:32:47.014Z,63.39
2018-10-06T09:33:53.411Z,62.74
2018-10-06T09:34:59.659Z,63.39
2018-10-06T09:36:05.981Z,64.32
2018-10-06T09:37:12.229Z,62.28
2018-10-06T09:38:18.457Z,63.45
2018-10-06T09:39:24.774Z,64.46
2018-10-06T09:40:31.122Z,64.45
2018-10-06T09:41:37.408Z,64.36
2018-10-06T09:42:43.860Z,63.54
2018-10-06T09:43:50.342Z,63.04
2018-10-06T09:44:56.651Z,62.97
2018-10-06T09:46:02.967Z,63.00
2018-10-06T09:47:09.267Z,64.93
2018-10-06T09:48:15.746Z,64.26
2018-10-06T09:49:22.319Z,63.14
2018-10-06T09:50:28.620Z,62.68
2018-10-06T09:51:34.939Z,62.25
2018-10-06T09:52:41.261Z,63.32
2018-10-06T09:53:47.622Z,63.05
2018-10-06T09:54:54.109Z,61.68
2018-10-06T09:56:00.384Z,61.19
2018-10-06T09:57:06.368Z,61.03
2018-10-06T09:58:13.334Z,62.14
2018-10-06T09:59:20.342Z,61.20
2018-10-06T10:00:26.557Z,61.37
2018-10-06T10:01:38.315Z,60.34
2018-10-06T10:02:44.484Z,59.57
2018-10-06T10:03:50.762Z,60.63
2018-10-06T10:04:57.025Z,59.97
2018-10-06T10:06:03.437Z,58.50
2018-10-06T10:07:10.439Z,59.64
2018-10-06T10:08:17.078Z,59.48
2018-10-06T10:09:23.301Z,59.11
2018-10-06T10:10:29.722Z,58.69
2018-10-06T10:11:35.722Z,58.80
2018-10-06T10:12:42.185Z,58.63
2018-10-06T10:13:48.635Z,58.32
2018-10-06T10:14:55.008Z,58.20
2018-10-06T10:16:01.217Z,57.66
2018-10-06T10:17:07.597Z,57.64
2018-10-06T10:18:14.201Z,57.78
2018-10-06T10:19:20.580Z,57.68
2018-10-06T10:20:26.906Z,57.71
2018-10-06T10:21:33.227Z,58.07
2018-10-06T10:22:39.582Z,58.55
2018-10-06T10:23:46.225Z,57.71
2018-10-06T10:24:52.773Z,58.79
2018-10-06T10:25:59.081Z,59.36
2018-10-06T10:27:05.398Z,56.96
2018-10-06T10:28:11.771Z,55.90
2018-10-06T10:29:18.705Z,56.14
2018-10-06T10:30:24.945Z,56.43
2018-10-06T10:31:31.389Z,56.94
2018-10-06T10:32:37.781Z,57.17
2018-10-06T10:33:44.121Z,57.19
2018-10-06T10:34:50.423Z,56.34
2018-10-06T10:35:56.445Z,56.36
2018-10-06T10:37:02.705Z,56.02
2018-10-06T10:38:09.071Z,57.00
2018-10-06T10:39:15.174Z,56.63
2018-10-06T10:40:21.754Z,56.90
2018-10-06T10:41:27.961Z,55.92
2018-10-06T10:42:34.177Z,54.91
2018-10-06T10:43:40.518Z,56.30
2018-10-06T10:44:46.818Z,56.16
2018-10-06T10:45:53.185Z,55.36
2018-10-06T10:46:59.522Z,54.89
2018-10-06T10:48:05.563Z,55.16
2018-10-06T10:49:11.960Z,55.17
2018-10-06T10:50:18.286Z,55.48
2018-10-06T10:51:25.022Z,56.02
2018-10-06T10:52:31.489Z,55.38
2018-10-06T10:53:37.841Z,54.49
2018-10-06T10:54:44.126Z,55.65
2018-10-06T10:55:50.444Z,56.76
2018-10-06T10:56:56.761Z,55.87
2018-10-06T10:58:03.130Z,56.14
2018-10-06T10:59:09.396Z,55.24
2018-10-06T11:00:15.825Z,54.16
2018-10-06T11:01:22.303Z,53.05
2018-10-06T11:02:28.676Z,53.61
2018-10-06T11:03:35.239Z,53.36
2018-10-06T11:04:41.605Z,54.17
2018-10-06T11:05:48.182Z,53.58
2018-10-06T11:06:54.482Z,55.01
2018-10-06T11:08:00.816Z,54.78
2018-10-06T11:09:06.896Z,54.56
2018-10-06T11:10:13.202Z,54.80
2018-10-06T11:11:19.706Z,55.05
2018-10-06T11:12:26.278Z,55.37
2018-10-06T11:13:32.550Z,53.62
2018-10-06T11:14:38.856Z,53.13
2018-10-06T11:15:45.181Z,52.80
2018-10-06T11:16:51.292Z,53.07
2018-10-06T11:17:57.672Z,53.68
2018-10-06T11:19:03.908Z,53.14
2018-10-06T11:20:10.214Z,52.62
2018-10-06T11:21:16.539Z,52.80
2018-10-06T11:22:22.810Z,52.26
2018-10-06T11:23:34.196Z,51.71
2018-10-06T11:24:39.853Z,52.27
2018-10-06T11:25:46.233Z,51.68
2018-10-06T11:26:52.461Z,52.15
2018-10-06T11:27:58.411Z,51.91
2018-10-06T11:29:04.613Z,50.54
2018-10-06T11:30:10.852Z,51.53
2018-10-06T11:31:17.266Z,50.77
2018-10-06T11:32:23.503Z,50.28
2018-10-06T11:33:29.457Z,49.74
2018-10-06T11:34:35.384Z,50.78
2018-10-06T11:35:41.630Z,49.65
2018-10-06T11:36:47.896Z,50.82
2018-10-06T11:37:53.610Z,49.94
2018-10-06T11:38:59.671Z,51.04
2018-10-06T11:40:05.949Z,50.78
2018-10-06T11:41:13.600Z,50.76
2018-10-06T11:42:19.900Z,50.20
2018-10-06T11:43:25.905Z,49.59
2018-10-06T11:44:32.142Z,48.78
2018-10-06T11:45:38.406Z,49.67
2018-10-06T11:46:44.674Z,48.14
2018-10-06T11:47:50.901Z,49.71
2018-10-06T11:48:56.854Z,48.13
2018-10-06T11:50:03.252Z,48.27
2018-10-06T11:51:09.627Z,49.25
2018-10-06T11:52:15.842Z,47.88
2018-10-06T11:53:22.092Z,48.65
2018-10-06T11:54:28.315Z,48.06
2018-10-06T11:55:34.530Z,48.02
2018-10-06T11:56:40.738Z,48.49
2018-10-06T11:57:46.964Z,47.57
2018-10-06T11:58:52.902Z,47.96
2018-10-06T11:59:59.131Z,49.43
2018-10-06T12:01:05.177Z,49.29
2018-10-06T12:02:11.376Z,48.81
2018-10-06T12:03:17.613Z,49.91
2018-10-06T12:04:23.866Z,50.03
2018-10-06T12:05:30.076Z,49.80
2018-10-06T12:06:36.262Z,49.89
2018-10-06T12:07:42.477Z,48.95
2018-10-06T12:08:48.713Z,49.22
2018-10-06T12:09:54.674Z,49.86
2018-10-06T12:11:00.655Z,49.51
2018-10-06T12:12:06.618Z,50.20
2018-10-06T12:13:12.858Z,50.00
2018-10-06T12:14:19.068Z,50.15
2018-10-06T12:15:25.050Z,51.37
2018-10-06T12:16:30.981Z,49.62
2018-10-06T12:17:37.194Z,49.96
2018-10-06T12:18:43.397Z,48.49
2018-10-06T12:19:49.620Z,48.20
2018-10-06T12:20:55.888Z,48.62
2018-10-06T12:22:02.096Z,49.28
2018-10-06T12:23:08.057Z,49.76
2018-10-06T12:24:14.290Z,48.33
2018-10-06T12:25:20.574Z,48.49
2018-10-06T12:26:26.770Z,47.84
2018-10-06T12:27:32.694Z,48.73
2018-10-06T12:28:38.626Z,49.47
2018-10-06T12:29:44.595Z,49.56
2018-10-06T12:30:50.859Z,48.24
2018-10-06T12:31:57.091Z,48.83
2018-10-06T12:33:03.299Z,49.02
2018-10-06T12:34:09.510Z,49.90
2018-10-06T12:35:15.823Z,50.44
2018-10-06T12:36:22.159Z,50.17
2018-10-06T12:37:28.077Z,50.28
2018-10-06T12:38:34.030Z,49.55
2018-10-06T12:39:40.280Z,49.24
2018-10-06T12:40:46.526Z,51.16
2018-10-06T12:41:52.515Z,50.58
2018-10-06T12:42:58.521Z,49.94
2018-10-06T12:44:04.783Z,49.25
2018-10-06T12:45:10.986Z,49.34
2018-10-06T12:46:17.254Z,49.98
2018-10-06T12:47:23.478Z,50.64
2018-10-06T12:48:29.703Z,51.23
2018-10-06T12:49:35.651Z,49.04
2018-10-06T12:50:41.607Z,49.43
2018-10-06T12:51:47.825Z,49.08
2018-10-06T12:52:54.060Z,49.80
2018-10-06T12:53:59.745Z,49.76
2018-10-06T12:55:05.697Z,51.00
2018-10-06T12:56:11.946Z,52.08
2018-10-06T12:57:17.894Z,49.58
2018-10-06T12:58:24.086Z,50.44
2018-10-06T12:59:30.302Z,50.39
2018-10-06T13:00:36.502Z,50.11
2018-10-06T13:01:42.744Z,50.27
2018-10-06T13:02:48.981Z,50.78
2018-10-06T13:03:55.243Z,50.88
2018-10-06T13:05:01.171Z,52.81
2018-10-06T13:06:07.148Z,51.85
2018-10-06T13:07:13.571Z,49.64
2018-10-06T13:08:19.837Z,47.91
2018-10-06T13:09:26.066Z,47.94
2018-10-06T13:10:32.257Z,50.34
2018-10-06T13:11:38.485Z,48.60
2018-10-06T13:12:44.691Z,46.64
2018-10-06T13:13:50.943Z,47.25
2018-10-06T13:14:57.145Z,47.16
2018-10-06T13:16:03.351Z,47.69
2018-10-06T13:17:09.602Z,48.83
2018-10-06T13:18:15.807Z,47.45
2018-10-06T13:19:22.067Z,47.17
2018-10-06T13:20:28.321Z,46.85
2018-10-06T13:21:34.588Z,47.62
2018-10-06T13:22:40.805Z,47.94
2018-10-06T13:23:47.013Z,47.30
2018-10-06T13:24:53.246Z,46.61
2018-10-06T13:25:59.464Z,46.89
2018-10-06T13:27:04.747Z,46.96
2018-10-06T13:28:10.669Z,45.74
2018-10-06T13:29:16.876Z,46.13
2018-10-06T13:30:22.814Z,45.98
2018-10-06T13:31:29.107Z,46.16
2018-10-06T13:32:35.508Z,45.70
2018-10-06T13:33:41.202Z,45.75
2018-10-06T13:34:47.101Z,46.02
2018-10-06T13:35:53.053Z,47.03
2018-10-06T13:36:59.294Z,46.71
2018-10-06T13:38:05.197Z,45.67
2018-10-06T13:39:11.175Z,45.91
2018-10-06T13:40:16.898Z,46.64
2018-10-06T13:41:22.852Z,47.42
2018-10-06T13:42:28.830Z,48.62
2018-10-06T13:43:35.036Z,49.21
2018-10-06T13:44:41.243Z,47.04
2018-10-06T13:45:47.094Z,47.91
2018-10-06T13:46:53.047Z,48.53
2018-10-06T13:47:59.409Z,48.42
2018-10-06T13:49:14.974Z,48.07
2018-10-06T13:50:21.223Z,48.42
2018-10-06T13:51:27.485Z,48.40
2018-10-06T13:52:33.757Z,48.46
2018-10-06T13:53:39.965Z,48.45
2018-10-06T13:54:45.858Z,46.92
2018-10-06T13:55:51.722Z,45.76
2018-10-06T13:56:57.689Z,46.11
2018-10-06T13:58:03.887Z,46.53
2018-10-06T13:59:10.314Z,46.69
2018-10-06T14:00:16.500Z,46.53
2018-10-06T14:01:22.331Z,47.10
2018-10-06T14:02:28.572Z,48.26
2018-10-06T14:03:34.495Z,49.42
2018-10-06T14:04:40.429Z,47.85
2018-10-06T14:05:46.647Z,46.74
2018-10-06T14:06:52.890Z,45.95
2018-10-06T14:07:59.083Z,47.40
2018-10-06T14:09:04.752Z,46.05
2018-10-06T14:10:10.982Z,46.86
2018-10-06T14:11:17.209Z,45.50
2018-10-06T14:12:23.444Z,45.18
2018-10-06T14:13:29.684Z,45.52
2018-10-06T14:14:35.898Z,47.55